createdAt,value
2022-12-27T00:01:34.505Z,101417.22
2022-12-27T00:03:38.620Z,101412.06
2022-12-27T00:05:45.137Z,101410.28
2022-12-27T00:07:49.276Z,101411.19
2022-12-27T00:09:53.006Z,101414.69
2022-12-27T00:11:59.912Z,101410.28
2022-12-27T00:14:07.680Z,101401.59
2022-12-27T00:16:13.503Z,101407.63
2022-12-27T00:18:17.510Z,101398.88
2022-12-27T00:20:21.958Z,101408.47
2022-12-27T00:22:25.734Z,101410.19
2022-12-27T00:24:33.456Z,101404.16
2022-12-27T00:26:38.490Z,101398.09
2022-12-27T00:28:42.672Z,101399.97
2022-12-27T00:30:49.269Z,101401.72
2022-12-27T00:32:53.596Z,101396.53
2022-12-27T00:34:57.277Z,101397.47
2022-12-27T00:37:01.240Z,101396.59
2022-12-27T00:39:05.621Z,101394.84
2022-12-27T00:41:09.719Z,101401.00
2022-12-27T00:43:13.284Z,101402.69
2022-12-27T00:45:16.965Z,101400.03
2022-12-27T00:47:22.446Z,101397.47
2022-12-27T00:49:26.136Z,101401.00
2022-12-27T00:51:29.932Z,101396.66
2022-12-27T00:53:34.987Z,101385.34
2022-12-27T00:55:38.899Z,101383.56
2022-12-27T00:57:42.743Z,101374.81
2022-12-27T00:59:46.296Z,101375.66
2022-12-27T01:01:50.707Z,101379.16
2022-12-27T01:04:06.835Z,101381.78
2022-12-27T01:06:15.893Z,101373.88
2022-12-27T01:08:20.744Z,101369.56
2022-12-27T01:10:30.581Z,101370.41
2022-12-27T01:12:47.793Z,101371.22
2022-12-27T01:15:00.539Z,101368.50
2022-12-27T01:17:12.402Z,101352.69
2022-12-27T01:19:29.211Z,101364.88
2022-12-27T01:21:36.483Z,101348.22
2022-12-27T01:23:50.547Z,101349.00
2022-12-27T01:26:13.983Z,101345.50
2022-12-27T01:28:18.163Z,101335.84
2022-12-27T01:30:23.449Z,101343.66
2022-12-27T01:32:29.233Z,101337.50
2022-12-27T01:34:34.376Z,101340.06
2022-12-27T01:36:38.390Z,101338.22
2022-12-27T01:38:44.097Z,101338.19
2022-12-27T01:40:47.910Z,101339.88
2022-12-27T01:42:53.230Z,101345.97
2022-12-27T01:44:59.063Z,101342.41
2022-12-27T01:47:04.800Z,101335.38
2022-12-27T01:49:11.955Z,101339.69
2022-12-27T01:51:18.394Z,101344.03
2022-12-27T01:53:24.836Z,101330.88
2022-12-27T01:55:34.225Z,101326.50
2022-12-27T01:57:38.163Z,101322.97
2022-12-27T01:59:43.155Z,101322.03
2022-12-27T02:01:49.661Z,101314.19
2022-12-27T02:03:56.014Z,101311.47
2022-12-27T02:06:02.661Z,101298.31
2022-12-27T02:08:19.956Z,101304.38
2022-12-27T02:10:23.874Z,101300.81
2022-12-27T02:12:28.614Z,101297.25
2022-12-27T02:14:35.298Z,101295.47
2022-12-27T02:16:39.308Z,101291.03
2022-12-27T02:18:43.312Z,101285.72
2022-12-27T02:21:10.363Z,101285.66
2022-12-27T02:24:03.498Z,101288.19
2022-12-27T02:26:41.571Z,101280.22
2022-12-27T02:29:07.857Z,101278.44
2022-12-27T02:31:18.052Z,101280.13
2022-12-27T02:33:26.595Z,101276.53
2022-12-27T02:35:37.212Z,101276.53
2022-12-27T02:37:44.669Z,101267.69
2022-12-27T02:39:50.325Z,101269.38
2022-12-27T02:42:12.533Z,101264.97
2022-12-27T02:44:34.663Z,101262.22
2022-12-27T02:46:55.307Z,101263.91
2022-12-27T02:49:17.756Z,101251.59
2022-12-27T02:51:50.742Z,101246.31
2022-12-27T02:54:07.296Z,101243.59
2022-12-27T02:56:41.207Z,101243.59
2022-12-27T02:58:50.394Z,101244.38
2022-12-27T03:01:25.610Z,101246.09
2022-12-27T03:03:44.823Z,101239.00
2022-12-27T03:06:30.572Z,101239.84
2022-12-27T03:08:43.319Z,101238.84
2022-12-27T03:11:07.464Z,101237.06
2022-12-27T03:13:37.912Z,101224.72
2022-12-27T03:16:06.958Z,101225.56
2022-12-27T03:18:15.557Z,101217.56
2022-12-27T03:20:38.206Z,101220.09
2022-12-27T03:23:01.178Z,101201.63
2022-12-27T03:25:22.984Z,101207.63
2022-12-27T03:27:32.980Z,101200.63
2022-12-27T03:29:53.825Z,101191.81
2022-12-27T03:32:20.858Z,101183.91
2022-12-27T03:34:36.050Z,101192.53
2022-12-27T03:36:56.755Z,101181.13
2022-12-27T03:39:06.948Z,101182.81
2022-12-27T03:41:33.174Z,101178.41
2022-12-27T03:43:38.191Z,101158.25
2022-12-27T03:46:09.695Z,101151.19
2022-12-27T03:48:21.569Z,101145.88
2022-12-27T03:50:29.766Z,101143.25
2022-12-27T03:52:39.374Z,101137.09
2022-12-27T03:54:44.808Z,101143.16
2022-12-27T03:56:48.122Z,101144.88
2022-12-27T03:58:52.288Z,101146.59
2022-12-27T04:00:55.711Z,101140.44
2022-12-27T04:02:59.128Z,101128.09
2022-12-27T04:05:04.190Z,101127.97
2022-12-27T04:07:07.725Z,101120.91
2022-12-27T04:09:29.068Z,101113.88
2022-12-27T04:11:50.717Z,101105.94
2022-12-27T04:14:11.321Z,101101.56
2022-12-27T04:16:32.086Z,101086.66
2022-12-27T04:18:52.815Z,101088.38
2022-12-27T04:21:14.946Z,101083.13
2022-12-27T04:23:35.953Z,101075.19
2022-12-27T04:25:56.588Z,101076.03
2022-12-27T04:28:17.909Z,101065.53
2022-12-27T04:30:38.520Z,101056.75
2022-12-27T04:32:59.282Z,101057.56
2022-12-27T04:35:02.513Z,101055.78
2022-12-27T04:37:07.505Z,101059.25
2022-12-27T04:39:10.872Z,101051.38
2022-12-27T04:41:31.479Z,101054.81
2022-12-27T04:43:52.130Z,101041.63
2022-12-27T04:46:12.701Z,101038.09
2022-12-27T04:48:34.845Z,101038.94
2022-12-27T04:50:55.626Z,101024.06
2022-12-27T04:53:17.962Z,101021.38
2022-12-27T04:55:24.291Z,101021.44
2022-12-27T04:57:28.736Z,101006.53
2022-12-27T05:00:04.022Z,101001.28
2022-12-27T05:02:07.493Z,101002.03
2022-12-27T05:04:11.075Z,100990.63
2022-12-27T05:06:14.816Z,100983.63
2022-12-27T05:08:39.115Z,100981.84
2022-12-27T05:10:59.797Z,100971.28
2022-12-27T05:13:20.664Z,100971.28
2022-12-27T05:15:24.238Z,100959.94
2022-12-27T05:17:27.481Z,100957.31
2022-12-27T05:19:30.737Z,100945.13
2022-12-27T05:21:37.014Z,100944.34
2022-12-27T05:24:05.101Z,100933.03
2022-12-27T05:26:07.946Z,100926.91
2022-12-27T05:28:13.243Z,100927.78
2022-12-27T05:30:16.576Z,100906.72
2022-12-27T05:32:19.803Z,100903.13
2022-12-27T05:34:23.091Z,100897.81
2022-12-27T05:36:27.158Z,100882.09
2022-12-27T05:38:30.565Z,100883.03
2022-12-27T05:40:35.608Z,100873.41
2022-12-27T05:42:39.028Z,100871.66
2022-12-27T05:44:42.315Z,100858.53
2022-12-27T05:46:46.611Z,100859.44
2022-12-27T05:48:51.108Z,100849.97
2022-12-27T05:50:54.393Z,100827.38
2022-12-27T05:52:59.851Z,100830.19
2022-12-27T05:55:03.229Z,100818.97
2022-12-27T05:57:07.878Z,100814.63
2022-12-27T05:59:11.308Z,100819.94
2022-12-27T06:01:16.752Z,100810.28
2022-12-27T06:03:20.473Z,100812.06
2022-12-27T06:05:23.837Z,100805.03
2022-12-27T06:07:27.120Z,100790.16
2022-12-27T06:09:30.531Z,100793.56
2022-12-27T06:11:33.867Z,100782.22
2022-12-27T06:13:39.623Z,100780.63
2022-12-27T06:15:43.004Z,100771.94
2022-12-27T06:17:46.359Z,100765.94
2022-12-27T06:19:53.913Z,100759.69
2022-12-27T06:22:00.300Z,100756.50
2022-12-27T06:24:03.751Z,100743.75
2022-12-27T06:26:07.513Z,100741.59
2022-12-27T06:28:10.846Z,100733.00
2022-12-27T06:30:15.875Z,100727.19
2022-12-27T06:32:19.281Z,100728.47
2022-12-27T06:34:22.557Z,100703.56
2022-12-27T06:36:27.801Z,100701.44
2022-12-27T06:38:31.146Z,100709.75
2022-12-27T06:40:34.388Z,100693.66
2022-12-27T06:42:37.795Z,100684.59
2022-12-27T06:44:41.063Z,100670.28
2022-12-27T06:46:45.801Z,100667.34
2022-12-27T06:48:49.276Z,100667.16
2022-12-27T06:50:52.730Z,100650.28
2022-12-27T06:52:56.068Z,100648.41
2022-12-27T06:54:59.327Z,100616.72
2022-12-27T06:57:02.626Z,100620.09
2022-12-27T06:59:06.079Z,100619.94
2022-12-27T07:01:10.109Z,100607.53
2022-12-27T07:03:15.419Z,100614.19
2022-12-27T07:05:19.262Z,100607.00
2022-12-27T07:07:22.909Z,100610.38
2022-12-27T07:09:27.171Z,100607.63
2022-12-27T07:11:32.863Z,100584.63
2022-12-27T07:13:37.123Z,100592.28
2022-12-27T07:15:40.540Z,100593.84
2022-12-27T07:17:43.864Z,100586.63
2022-12-27T07:19:48.756Z,100575.00
2022-12-27T07:21:52.135Z,100574.94
2022-12-27T07:23:55.579Z,100568.59
2022-12-27T07:26:03.512Z,100578.03
2022-12-27T07:28:07.022Z,100562.91
2022-12-27T07:30:11.447Z,100552.28
2022-12-27T07:32:14.820Z,100542.53
2022-12-27T07:34:18.077Z,100539.88
2022-12-27T07:36:25.310Z,100532.00
2022-12-27T07:38:28.756Z,100521.53
2022-12-27T07:40:32.071Z,100525.00
2022-12-27T07:42:35.446Z,100511.69
2022-12-27T07:44:40.129Z,100516.84
2022-12-27T07:46:43.987Z,100521.91
2022-12-27T07:48:48.137Z,100539.22
2022-12-27T07:50:56.382Z,100515.34
2022-12-27T07:53:01.120Z,100515.19
2022-12-27T07:55:04.647Z,100494.88
2022-12-27T07:57:07.949Z,100501.88
2022-12-27T07:59:13.886Z,100494.72
2022-12-27T08:01:18.929Z,100496.41
2022-12-27T08:03:22.518Z,100494.53
2022-12-27T08:05:27.916Z,100488.16
2022-12-27T08:07:31.469Z,100491.47
2022-12-27T08:09:40.798Z,100488.09
2022-12-27T08:11:44.092Z,100474.06
2022-12-27T08:13:47.712Z,100475.75
2022-12-27T08:15:53.743Z,100468.78
2022-12-27T08:17:57.045Z,100463.44
2022-12-27T08:20:00.305Z,100469.38
2022-12-27T08:22:05.348Z,100467.53
2022-12-27T08:24:08.814Z,100467.34
2022-12-27T08:26:13.842Z,100489.78
2022-12-27T08:28:18.609Z,100480.75
2022-12-27T08:30:22.068Z,100456.94
2022-12-27T08:32:25.691Z,100454.22
2022-12-27T08:34:29.199Z,100464.63
2022-12-27T08:38:56.373Z,100441.31
2022-12-27T08:40:59.604Z,100439.41
2022-12-27T08:43:04.394Z,100440.00
2022-12-27T08:45:08.507Z,100436.25
2022-12-27T08:47:12.198Z,100434.34
2022-12-27T08:49:15.593Z,100427.03
2022-12-27T08:51:31.428Z,100422.53
2022-12-27T08:53:36.678Z,100426.69
2022-12-27T08:55:40.002Z,100415.94
2022-12-27T08:57:43.348Z,100423.66
2022-12-27T08:59:47.969Z,100417.38
2022-12-27T09:01:51.346Z,100408.53
2022-12-27T09:03:54.715Z,100401.34
2022-12-27T09:06:08.447Z,100396.00
2022-12-27T09:08:11.897Z,100381.94
2022-12-27T09:10:15.497Z,100367.00
2022-12-27T09:12:18.897Z,100382.53
2022-12-27T09:14:22.222Z,100384.13
2022-12-27T09:16:28.732Z,100381.31
2022-12-27T09:18:32.062Z,100388.19
2022-12-27T09:20:35.311Z,100373.88
2022-12-27T09:22:38.613Z,100366.44
2022-12-27T09:24:41.947Z,100367.00
2022-12-27T09:26:45.261Z,100355.31
2022-12-27T09:28:50.444Z,100345.50
2022-12-27T09:30:53.736Z,100354.06
2022-12-27T09:32:59.400Z,100340.69
2022-12-27T09:35:03.434Z,100353.78
2022-12-27T09:37:06.853Z,100343.13
2022-12-27T09:39:12.329Z,100336.91
2022-12-27T09:42:11.417Z,100350.94
2022-12-27T09:43:55.278Z,100330.78
2022-12-27T09:46:00.141Z,100320.22
2022-12-27T09:48:12.241Z,100322.97
2022-12-27T09:50:20.114Z,100309.84
2022-12-27T09:52:29.942Z,100303.63
2022-12-27T09:54:39.481Z,100296.56
2022-12-27T09:57:18.478Z,100302.47
2022-12-27T09:59:16.194Z,100298.91
2022-12-27T10:01:23.962Z,100300.78
2022-12-27T10:03:31.246Z,100301.66
2022-12-27T10:05:37.746Z,100310.41
2022-12-27T10:07:48.888Z,100303.25
2022-12-27T10:10:01.897Z,100298.50
2022-12-27T10:12:19.092Z,100285.03
2022-12-27T10:14:38.431Z,100278.59
2022-12-27T10:16:49.294Z,100279.31
2022-12-27T10:19:12.615Z,100279.25
2022-12-27T10:21:21.900Z,100269.44
2022-12-27T10:23:27.886Z,100262.16
2022-12-27T10:25:32.400Z,100265.31
2022-12-27T10:27:36.754Z,100266.75
2022-12-27T10:29:40.844Z,100263.59
2022-12-27T10:31:44.913Z,100262.28
2022-12-27T10:34:33.601Z,100258.38
2022-12-27T10:36:35.022Z,100245.19
2022-12-27T10:38:38.318Z,100250.06
2022-12-27T10:40:50.489Z,100253.97
2022-12-27T10:43:03.676Z,100261.28
2022-12-27T10:45:29.917Z,100232.41
2022-12-27T10:47:33.284Z,100214.22
2022-12-27T10:49:37.493Z,100231.69
2022-12-27T10:51:43.445Z,100222.78
2022-12-27T10:53:59.276Z,100209.38
2022-12-27T10:56:15.162Z,100203.97
2022-12-27T10:58:33.614Z,100199.50
2022-12-27T11:00:38.692Z,100196.75
2022-12-27T11:02:51.028Z,100186.16
2022-12-27T11:05:00.412Z,100191.97
2022-12-27T11:07:21.055Z,100206.16
2022-12-27T11:09:31.863Z,100201.09
2022-12-27T11:11:35.692Z,100200.16
2022-12-27T11:13:39.393Z,100185.88
2022-12-27T11:15:48.147Z,100192.63
2022-12-27T11:17:55.429Z,100192.50
2022-12-27T11:20:01.875Z,100191.56
2022-12-27T11:22:09.229Z,100188.06
2022-12-27T11:24:17.576Z,100188.91
2022-12-27T11:26:25.279Z,100175.69
2022-12-27T11:28:34.944Z,100174.84
2022-12-27T11:30:41.224Z,100170.28
2022-12-27T11:32:46.955Z,100171.88
2022-12-27T11:34:55.373Z,100161.06
2022-12-27T11:37:07.365Z,100155.78
2022-12-27T11:39:41.228Z,100149.66
2022-12-27T11:41:49.580Z,100139.78
2022-12-27T11:44:01.184Z,100150.25
2022-12-27T11:46:12.638Z,100143.25
2022-12-27T11:48:28.186Z,100131.97
2022-12-27T11:50:44.875Z,100130.25
2022-12-27T11:53:07.627Z,100122.56
2022-12-27T11:55:45.481Z,100135.78
2022-12-27T11:58:10.852Z,100143.84
2022-12-27T12:00:22.067Z,100126.91
2022-12-27T12:02:35.081Z,100123.28
2022-12-27T12:05:13.818Z,100122.84
2022-12-27T12:07:30.713Z,100105.78
2022-12-27T12:09:55.549Z,100108.97
2022-12-27T12:12:21.695Z,100101.53
2022-12-27T12:14:46.718Z,100091.78
2022-12-27T12:17:09.890Z,100071.69
2022-12-27T12:19:32.792Z,100064.09
2022-12-27T12:21:50.160Z,100067.06
2022-12-27T12:24:27.157Z,100060.31
2022-12-27T12:26:38.561Z,100048.03
2022-12-27T12:29:06.773Z,100047.06
2022-12-27T12:31:28.622Z,100049.59
2022-12-27T12:33:58.838Z,100048.31
2022-12-27T12:36:24.924Z,100043.41
2022-12-27T12:38:39.808Z,100048.13
2022-12-27T12:41:16.384Z,100037.94
2022-12-27T12:43:37.377Z,100030.50
2022-12-27T12:46:00.966Z,100006.44
2022-12-27T12:48:28.243Z,100013.63
2022-12-27T12:50:46.386Z,100004.97
2022-12-27T12:53:23.040Z,100001.72
2022-12-27T12:55:49.073Z,100008.94
2022-12-27T12:58:06.663Z,99994.97
2022-12-27T13:00:45.225Z,99999.66
2022-12-27T13:03:49.751Z,100001.56
2022-12-27T13:06:05.439Z,100005.06
2022-12-27T13:08:17.187Z,100007.81
2022-12-27T13:10:47.508Z,99988.44
2022-12-27T13:13:01.866Z,99988.44
2022-12-27T13:15:34.918Z,99951.41
2022-12-27T13:17:55.157Z,99956.94
2022-12-27T13:20:36.016Z,99946.59
2022-12-27T13:22:55.283Z,99955.59
2022-12-27T13:25:15.288Z,99943.44
2022-12-27T13:27:28.348Z,99929.47
2022-12-27T13:30:07.149Z,99929.47
2022-12-27T13:32:30.134Z,99930.41
2022-12-27T13:34:57.299Z,99926.09
2022-12-27T13:37:17.451Z,99911.91
2022-12-27T13:39:44.061Z,99898.47
2022-12-27T13:42:08.136Z,99882.59
2022-12-27T13:44:34.541Z,99878.00
2022-12-27T13:46:51.402Z,99869.84
2022-12-27T13:49:14.524Z,99882.84
2022-12-27T13:51:38.058Z,99875.59
2022-12-27T13:54:36.744Z,99877.31
2022-12-27T13:56:57.180Z,99888.38
2022-12-27T13:59:24.846Z,99886.44
2022-12-27T14:01:48.521Z,99897.78
2022-12-27T14:04:11.779Z,99903.06
2022-12-27T14:06:50.905Z,99897.66
2022-12-27T14:09:43.285Z,99902.81
2022-12-27T14:12:03.026Z,99900.19
2022-12-27T14:14:08.476Z,99896.69
2022-12-27T14:16:30.688Z,99900.19
2022-12-27T14:18:58.015Z,99895.84
2022-12-27T14:21:16.979Z,99895.97
2022-12-27T14:24:00.604Z,99899.47
2022-12-27T14:26:48.788Z,99904.75
2022-12-27T14:29:41.273Z,99898.84
2022-12-27T14:32:03.567Z,99904.38
2022-12-27T14:34:45.425Z,99916.16
2022-12-27T14:37:20.433Z,99920.13
2022-12-27T14:39:43.927Z,99917.94
2022-12-27T14:42:29.182Z,99928.59
2022-12-27T14:45:18.233Z,99945.72
2022-12-27T14:48:02.629Z,99939.16
2022-12-27T14:50:53.579Z,99929.16
2022-12-27T14:53:33.955Z,99937.03
2022-12-27T14:55:58.078Z,99944.91
2022-12-27T14:58:22.011Z,99924.66
2022-12-27T15:00:27.101Z,99938.34
2022-12-27T15:02:49.468Z,99941.34
2022-12-27T15:05:18.714Z,99943.66
2022-12-27T15:07:48.186Z,99942.19
2022-12-27T15:10:03.718Z,99934.56
2022-12-27T15:12:22.647Z,99936.59
2022-12-27T15:14:50.917Z,99925.50
2022-12-27T15:17:07.232Z,99932.69
2022-12-27T15:19:43.335Z,99928.56
2022-12-27T15:21:55.490Z,99927.63
2022-12-27T15:24:11.706Z,99929.44
2022-12-27T15:26:23.860Z,99929.31
2022-12-27T15:28:45.961Z,99932.91
2022-12-27T15:31:03.778Z,99930.25
2022-12-27T15:33:19.502Z,99937.56
2022-12-27T15:35:50.232Z,99937.88
2022-12-27T15:38:13.869Z,99940.84
2022-12-27T15:40:26.707Z,99936.91
2022-12-27T15:42:54.409Z,99943.25
2022-12-27T15:45:07.202Z,99951.47
2022-12-27T15:47:50.533Z,99950.88
2022-12-27T15:50:32.646Z,99961.59
2022-12-27T15:53:12.002Z,99954.66
2022-12-27T15:55:29.964Z,99951.25
2022-12-27T15:57:59.599Z,99939.97
2022-12-27T16:00:17.418Z,99951.47
2022-12-27T16:02:37.787Z,99946.31
2022-12-27T16:04:51.088Z,99947.13
2022-12-27T16:07:02.315Z,99942.81
2022-12-27T16:09:35.716Z,99942.81
2022-12-27T16:12:09.853Z,99936.69
2022-12-27T16:14:30.612Z,99941.97
2022-12-27T16:17:04.963Z,99940.16
2022-12-27T16:19:22.624Z,99932.25
2022-12-27T16:21:28.081Z,99934.88
2022-12-27T16:23:35.032Z,99936.69
2022-12-27T16:25:42.540Z,99934.16
2022-12-27T16:27:46.742Z,99935.94
2022-12-27T16:29:50.359Z,99938.69
2022-12-27T16:32:12.913Z,99936.25
2022-12-27T16:34:25.486Z,99934.56
2022-12-27T16:36:33.893Z,99926.97
2022-12-27T16:38:40.361Z,99923.69
2022-12-27T16:40:52.176Z,99922.00
2022-12-27T16:43:28.889Z,99921.06
2022-12-27T16:45:47.181Z,99917.69
2022-12-27T16:48:15.110Z,99922.84
2022-12-27T16:50:41.130Z,99922.00
2022-12-27T16:53:00.827Z,99911.53
2022-12-27T16:55:23.169Z,99914.28
2022-12-27T16:57:43.029Z,99914.28
2022-12-27T17:00:03.661Z,99916.19
2022-12-27T17:02:32.806Z,99923.34
2022-12-27T17:05:01.549Z,99927.78
2022-12-27T17:07:07.298Z,99934.00
2022-12-27T17:09:43.229Z,99945.59
2022-12-27T17:12:07.853Z,99940.44
2022-12-27T17:14:16.928Z,99928.28
2022-12-27T17:16:24.521Z,99922.28
2022-12-27T17:18:33.012Z,99932.84
2022-12-27T17:20:40.064Z,99942.53
2022-12-27T17:22:44.460Z,99930.38
2022-12-27T17:24:51.515Z,99941.91
2022-12-27T17:27:12.888Z,99945.47
2022-12-27T17:29:43.081Z,99948.00
2022-12-27T17:32:05.648Z,99946.13
2022-12-27T17:34:21.689Z,99950.44
2022-12-27T17:36:41.305Z,99958.22
2022-12-27T17:38:58.655Z,99967.84
2022-12-27T17:41:16.064Z,99961.63
2022-12-27T17:43:51.849Z,99966.06
2022-12-27T17:46:15.866Z,99972.19
2022-12-27T17:48:27.325Z,99985.25
2022-12-27T17:50:31.195Z,99987.06
2022-12-27T17:52:52.112Z,99982.72
2022-12-27T17:55:44.870Z,99968.72
2022-12-27T17:57:56.383Z,99964.47
2022-12-27T18:00:02.573Z,99958.53
2022-12-27T18:02:33.390Z,99955.25
2022-12-27T18:04:40.384Z,99948.50
2022-12-27T18:06:50.537Z,99944.38
2022-12-27T18:08:55.030Z,99956.81
2022-12-27T18:10:59.960Z,99953.41
2022-12-27T18:13:06.787Z,99965.00
2022-12-27T18:15:17.395Z,99954.78
2022-12-27T18:17:29.286Z,99965.41
2022-12-27T18:19:34.285Z,99960.03
2022-12-27T18:21:38.316Z,99967.94
2022-12-27T18:23:45.949Z,99974.06
2022-12-27T18:25:58.013Z,99972.19
2022-12-27T18:28:05.406Z,99985.25
2022-12-27T18:30:13.759Z,99979.78
2022-12-27T18:32:20.130Z,99985.06
2022-12-27T18:34:29.809Z,99980.75
2022-12-27T18:36:38.280Z,99975.53
2022-12-27T18:38:44.814Z,99979.16
2022-12-27T18:41:01.104Z,99971.41
2022-12-27T18:43:05.096Z,99961.84
2022-12-27T18:45:17.139Z,99980.41
2022-12-27T18:47:23.311Z,99977.84
2022-12-27T18:49:32.026Z,99978.81
2022-12-27T18:51:39.260Z,99981.59
2022-12-27T18:53:45.839Z,99980.78
2022-12-27T18:55:59.478Z,99979.06
2022-12-27T18:58:05.917Z,99985.22
2022-12-27T19:00:18.747Z,99982.69
2022-12-27T19:02:35.963Z,99980.13
2022-12-27T19:04:41.130Z,99984.56
2022-12-27T19:06:51.780Z,99985.47
2022-12-27T19:08:56.104Z,99984.75
2022-12-27T19:10:59.736Z,99972.50
2022-12-27T19:13:04.472Z,99979.66
2022-12-27T19:15:20.917Z,99972.81
2022-12-27T19:17:26.613Z,99976.38
2022-12-27T19:19:32.352Z,99975.63
2022-12-27T19:21:39.087Z,99983.44
2022-12-27T19:23:49.175Z,99978.34
2022-12-27T19:26:01.341Z,99973.28
2022-12-27T19:28:28.245Z,99976.75
2022-12-27T19:30:42.769Z,99983.81
2022-12-27T19:32:46.688Z,99983.06
2022-12-27T19:34:54.811Z,99977.06
2022-12-27T19:37:00.726Z,99990.22
2022-12-27T19:39:21.388Z,99994.56
2022-12-27T19:41:27.218Z,99992.88
2022-12-27T19:43:37.502Z,99982.34
2022-12-27T19:45:41.257Z,99984.13
2022-12-27T19:47:44.935Z,99980.63
2022-12-27T19:49:49.610Z,99988.53
2022-12-27T19:51:56.731Z,99990.34
2022-12-27T19:54:02.021Z,99992.09
2022-12-27T19:56:06.359Z,99991.16
2022-12-27T19:58:16.882Z,99985.16
2022-12-27T20:00:22.164Z,99974.63
2022-12-27T20:02:26.137Z,99982.63
2022-12-27T20:04:30.749Z,99980.06
2022-12-27T20:06:35.603Z,99987.22
2022-12-27T20:08:41.638Z,99972.38
2022-12-27T20:10:46.786Z,99974.25
2022-12-27T20:12:50.516Z,99969.84
2022-12-27T20:14:54.441Z,99961.16
2022-12-27T20:16:58.479Z,99965.59
2022-12-27T20:19:03.081Z,99974.53
2022-12-27T20:21:08.196Z,99976.34
2022-12-27T20:23:12.021Z,99981.69
2022-12-27T20:25:15.852Z,99979.91
2022-12-27T20:27:24.077Z,99994.88
2022-12-27T20:29:30.474Z,99994.09
2022-12-27T20:31:37.533Z,99980.94
2022-12-27T20:33:46.231Z,99983.66
2022-12-27T20:35:57.394Z,99986.41
2022-12-27T20:38:01.423Z,99987.44
2022-12-27T20:40:05.381Z,99984.06
2022-12-27T20:42:08.849Z,99985.00
2022-12-27T20:44:15.074Z,99991.19
2022-12-27T20:46:20.164Z,99998.34
2022-12-27T20:48:23.995Z,99994.97
2022-12-27T20:50:27.517Z,99991.59
2022-12-27T20:52:31.544Z,100004.75
2022-12-27T20:54:35.326Z,100003.97
2022-12-27T20:56:39.115Z,100001.44
2022-12-27T20:58:42.991Z,100002.47
2022-12-27T21:00:48.290Z,99994.69
2022-12-27T21:02:52.355Z,100000.03
2022-12-27T21:04:56.550Z,100008.88
2022-12-27T21:07:00.337Z,100007.25
2022-12-27T21:09:05.940Z,100015.16
2022-12-27T21:11:10.914Z,100015.16
2022-12-27T21:13:15.995Z,100009.06
2022-12-27T21:15:19.908Z,100011.78
2022-12-27T21:17:24.944Z,100029.34
2022-12-27T21:19:30.742Z,100026.72
2022-12-27T21:21:36.887Z,100033.00
2022-12-27T21:23:40.940Z,100029.53
2022-12-27T21:25:44.580Z,100034.03
2022-12-27T21:27:48.833Z,100034.13
2022-12-27T21:29:52.423Z,100035.91
2022-12-27T21:31:56.240Z,100029.88
2022-12-27T21:34:01.750Z,100037.03
2022-12-27T21:36:08.096Z,100042.31
2022-12-27T21:38:11.822Z,100044.09
2022-12-27T21:40:15.927Z,100040.69
2022-12-27T21:42:19.836Z,100067.94
2022-12-27T21:44:25.553Z,100060.91
2022-12-27T21:46:31.783Z,100053.03
2022-12-27T21:48:37.916Z,100053.94
2022-12-27T21:50:43.231Z,100053.03
2022-12-27T21:52:46.853Z,100061.66
2022-12-27T21:54:50.694Z,100063.34
2022-12-27T21:56:54.433Z,100077.25
2022-12-27T21:58:59.818Z,100071.84
2022-12-27T22:01:08.568Z,100086.59
2022-12-27T22:03:13.189Z,100094.22
2022-12-27T22:05:17.243Z,100089.63
2022-12-27T22:07:22.528Z,100075.34
2022-12-27T22:09:26.305Z,100082.94
2022-12-27T22:11:38.832Z,100081.09
2022-12-27T22:13:43.581Z,100077.50
2022-12-27T22:15:56.749Z,100077.50
2022-12-27T22:18:01.268Z,100080.13
2022-12-27T22:20:05.524Z,100069.50
2022-12-27T22:22:14.865Z,100080.91
2022-12-27T22:24:43.675Z,100079.97
2022-12-27T22:26:52.714Z,100082.59
2022-12-27T22:29:08.527Z,100094.81
2022-12-27T22:31:14.682Z,100093.88
2022-12-27T22:33:19.594Z,100092.94
2022-12-27T22:35:24.918Z,100094.69
2022-12-27T22:37:28.935Z,100096.50
2022-12-27T22:39:34.370Z,100097.53
2022-12-27T22:41:38.716Z,100096.78
2022-12-27T22:43:45.666Z,100103.81
2022-12-27T22:48:28.021Z,100119.06
2022-12-27T22:50:32.059Z,100113.03
2022-12-27T22:52:36.321Z,100121.84
2022-12-27T22:55:07.177Z,100113.22
2022-12-27T22:57:11.322Z,100116.78
2022-12-27T22:59:19.590Z,100105.41
2022-12-27T23:01:27.955Z,100108.97
2022-12-27T23:03:31.950Z,100106.44
2022-12-27T23:05:35.944Z,100102.09
2022-12-27T23:08:04.087Z,100090.75
2022-12-27T23:10:05.663Z,100091.56
2022-12-27T23:12:11.895Z,100075.00
2022-12-27T23:14:18.618Z,100068.09
2022-12-27T23:16:22.648Z,100062.72
2022-12-27T23:18:26.567Z,100077.66
2022-12-27T23:20:30.424Z,100074.09
2022-12-27T23:22:34.243Z,100074.09
2022-12-27T23:24:38.158Z,100086.41
2022-12-27T23:26:43.736Z,100075.88
2022-12-27T23:28:48.456Z,100087.25
2022-12-27T23:30:52.273Z,100092.50
2022-12-27T23:32:57.451Z,100092.50
2022-12-27T23:35:01.197Z,100093.44
2022-12-27T23:37:05.348Z,100071.66
2022-12-27T23:39:09.830Z,100062.03
2022-12-27T23:41:17.836Z,100062.13
2022-12-27T23:43:55.838Z,100076.22
2022-12-27T23:45:49.558Z,100077.94
2022-12-27T23:47:53.653Z,100077.09
2022-12-27T23:49:57.315Z,100089.28
2022-12-27T23:52:01.274Z,100078.84
2022-12-27T23:54:06.944Z,100083.09
2022-12-27T23:56:16.537Z,100076.13
2022-12-27T23:58:20.507Z,100062.97
